Terminal Aerodrome Forecast
Issued by NWS

Home | Current Version | Previous Version | Text Only | Print | Product List | Glossary On
Versions: 1 2 3 4 5 6 7 8 9 10 11 12 13 14 15 16 17 18 19 20 21 22 23 24 25 26
000
FTUS43 KDLH 211800 AAA
TAFHIB
TAF AMD
KHIB 211835Z 2119/2218 18008G15KT P6SM SCT025
     FM220300 15006KT P6SM -TSRA BKN050CB
      TEMPO 2204/2207 2SM TSRA OVC035CB
     FM220900 VRB05KT 4SM -SHRA BR SCT004 OVC007
     FM221500 31012G22KT P6SM SCT007 OVC015=

USA.gov is the U.S. government's official web portal to all federal, state and local government web resources and services.